Time;durP1;ratioP1;P1;durP2;ratioP2;P2;SDS_P1;SDS_P2;PMS_P1;PMS_P2;Temp;Humidity;BMP_temperature;BMP_pressure;BME280_temperature;BME280_humidity;BME280_pressure;Samples;Min_cycle;Max_cycle;Signal;HPM_P1;HPM_P2
2022/12/06 00:00:43;;;;;;;18.00;11.07;;;3.60;99.90;;;;;;5030732;28;20616;-67
2022/12/06 00:03:09;;;;;;;20.17;11.40;;;3.60;99.90;;;;;;5031079;28;20175;-66
2022/12/06 00:05:34;;;;;;;13.27;9.20;;;3.60;99.90;;;;;;5024375;28;20188;-64
2022/12/06 00:08:00;;;;;;;22.13;10.33;;;3.50;99.90;;;;;;5031251;28;20704;-67
2022/12/06 00:10:25;;;;;;;15.13;9.93;;;3.40;99.90;;;;;;5030427;28;20219;-67
2022/12/06 00:12:51;;;;;;;15.00;9.77;;;3.50;99.90;;;;;;5030823;28;20180;-66
2022/12/06 00:15:17;;;;;;;17.30;9.93;;;3.60;99.90;;;;;;5030697;28;20253;-66
2022/12/06 00:17:42;;;;;;;18.67;11.97;;;3.50;99.90;;;;;;5030845;28;20180;-66
2022/12/06 00:20:08;;;;;;;17.00;10.07;;;3.50;99.90;;;;;;5024275;28;20200;-66
2022/12/06 00:22:34;;;;;;;16.00;11.20;;;3.60;99.90;;;;;;5031504;28;20167;-66
2022/12/06 00:25:00;;;;;;;15.80;10.50;;;3.70;99.90;;;;;;5031208;28;20888;-66
2022/12/06 00:27:25;;;;;;;21.37;13.20;;;3.60;99.90;;;;;;5031461;28;20178;-67
2022/12/06 00:29:51;;;;;;;18.70;9.90;;;3.60;99.90;;;;;;5024926;28;20673;-64
2022/12/06 00:32:16;;;;;;;24.80;11.90;;;3.50;99.90;;;;;;5030929;28;20180;-64
2022/12/06 00:34:42;;;;;;;17.37;11.83;;;3.50;99.90;;;;;;5030519;28;20207;-66
2022/12/06 00:37:07;;;;;;;17.50;10.90;;;3.50;99.90;;;;;;5030660;28;20234;-67
2022/12/06 00:39:33;;;;;;;15.40;10.20;;;3.50;99.90;;;;;;5030139;28;20171;-65
2022/12/06 00:41:58;;;;;;;19.10;12.00;;;3.50;99.90;;;;;;5030598;28;20599;-65
2022/12/06 00:44:24;;;;;;;17.37;12.47;;;3.50;99.90;;;;;;5030530;28;20175;-66
2022/12/06 00:46:50;;;;;;;21.30;11.37;;;3.50;99.90;;;;;;5030475;28;20634;-66
2022/12/06 00:49:15;;;;;;;14.77;10.03;;;3.50;99.90;;;;;;5030703;28;20179;-67
2022/12/06 00:51:41;;;;;;;14.73;9.40;;;3.40;99.90;;;;;;5030658;28;20634;-66
2022/12/06 00:54:07;;;;;;;13.83;9.57;;;3.40;99.90;;;;;;5030069;28;20667;-67
2022/12/06 00:56:35;;;;;;;15.67;10.03;;;3.40;99.90;;;;;;5030289;28;20589;-65
2022/12/06 00:59:01;;;;;;;15.43;9.97;;;3.40;99.90;;;;;;5028348;28;20425;-65
2022/12/06 01:01:29;;;;;;;14.10;8.40;;;3.40;99.90;;;;;;5028358;28;20529;-66
2022/12/06 01:03:58;;;;;;;19.03;10.33;;;3.40;99.90;;;;;;5030261;28;20573;-66
2022/12/06 01:06:26;;;;;;;19.67;10.87;;;3.50;99.90;;;;;;5030782;28;20414;-65
2022/12/06 01:08:53;;;;;;;16.80;10.70;;;3.40;99.90;;;;;;5030302;28;20418;-66
2022/12/06 01:11:20;;;;;;;18.00;11.70;;;3.50;99.90;;;;;;5023657;28;20446;-66
2022/12/06 01:13:47;;;;;;;20.03;11.30;;;3.40;99.90;;;;;;5032646;28;20535;-66
2022/12/06 01:16:16;;;;;;;18.77;11.63;;;3.40;99.90;;;;;;5033753;28;20927;-67
2022/12/06 01:18:43;;;;;;;17.80;10.53;;;3.40;99.90;;;;;;5033950;28;20418;-66
2022/12/06 01:21:13;;;;;;;21.83;12.23;;;3.30;99.90;;;;;;5034194;28;20440;-65
2022/12/06 01:23:39;;;;;;;18.90;11.20;;;3.20;99.90;;;;;;5034262;28;20749;-66
2022/12/06 01:26:06;;;;;;;18.80;11.87;;;3.20;99.90;;;;;;5034253;28;20440;-66
2022/12/06 01:28:32;;;;;;;21.37;12.50;;;3.20;99.90;;;;;;5034276;28;20500;-66
2022/12/06 01:30:58;;;;;;;18.60;10.23;;;3.30;99.90;;;;;;5033723;28;20837;-65
2022/12/06 01:33:25;;;;;;;13.73;10.20;;;3.30;99.90;;;;;;5033629;28;20657;-66
2022/12/06 01:35:51;;;;;;;15.73;11.00;;;3.20;99.90;;;;;;5033681;28;20180;-66
2022/12/06 01:38:16;;;;;;;15.20;10.80;;;3.20;99.90;;;;;;5033605;28;20413;-65
2022/12/06 01:40:44;;;;;;;20.03;10.60;;;3.20;99.90;;;;;;5030023;28;20252;-64
2022/12/06 01:43:31;;;;;;;18.90;10.00;;;3.20;99.90;;;;;;5033574;28;20175;-66
2022/12/06 01:46:01;;;;;;;20.10;10.30;;;3.20;99.90;;;;;;5031941;28;20414;-66
2022/12/06 01:48:27;;;;;;;17.40;11.80;;;3.00;99.90;;;;;;5033337;28;20415;-66
2022/12/06 01:50:55;;;;;;;15.10;10.50;;;3.00;99.90;;;;;;5033126;28;20433;-66
2022/12/06 01:53:23;;;;;;;13.50;10.33;;;3.10;99.90;;;;;;5033187;28;20446;-65
2022/12/06 01:55:48;;;;;;;13.83;10.37;;;3.20;99.90;;;;;;5033081;28;20417;-66
2022/12/06 01:58:22;;;;;;;16.73;9.13;;;3.10;99.90;;;;;;5033374;28;20769;-65
2022/12/06 02:00:48;;;;;;;14.83;9.87;;;3.20;99.90;;;;;;5033074;28;20183;-66
2022/12/06 02:03:19;;;;;;;13.23;8.50;;;3.20;99.90;;;;;;5012059;28;20521;-64
2022/12/06 02:05:44;;;;;;;16.97;10.57;;;3.10;99.90;;;;;;5032466;28;20175;-66
2022/12/06 02:08:12;;;;;;;18.77;9.60;;;3.10;99.90;;;;;;5032706;28;20468;-66
2022/12/06 02:10:38;;;;;;;18.47;9.93;;;3.10;99.90;;;;;;5032960;28;20541;-65
2022/12/06 02:13:05;;;;;;;11.87;7.87;;;3.00;99.90;;;;;;5033440;28;20402;-66
2022/12/06 02:16:09;;;;;;;15.13;9.47;;;3.00;99.90;;;;;;5033295;28;20402;-66
2022/12/06 02:19:36;;;;;;;10.23;7.23;;;3.00;99.90;;;;;;4994594;28;20416;-68
2022/12/06 02:22:35;;;;;;;14.57;8.07;;;3.00;99.90;;;;;;4944026;28;21239;-65
2022/12/06 02:25:19;;;;;;;13.07;8.63;;;3.00;99.90;;;;;;5032120;28;20414;-66
2022/12/06 02:28:03;;;;;;;12.00;7.37;;;3.00;99.90;;;;;;5029854;28;20410;-66
2022/12/06 02:30:55;;;;;;;12.53;8.20;;;3.10;99.90;;;;;;5032482;28;20430;-67
2022/12/06 02:33:32;;;;;;;14.50;8.30;;;3.10;99.90;;;;;;5026022;28;20798;-67
2022/12/06 02:36:20;;;;;;;13.20;7.40;;;3.00;99.90;;;;;;5026314;28;20915;-67
2022/12/06 02:38:53;;;;;;;13.97;8.73;;;2.90;99.90;;;;;;5026192;28;20506;-67
2022/12/06 02:41:54;;;;;;;13.70;9.80;;;3.10;99.90;;;;;;5032327;28;20417;-65
2022/12/06 02:44:58;;;;;;;13.40;8.57;;;3.00;99.90;;;;;;5026525;28;20549;-67
2022/12/06 02:47:31;;;;;;;11.27;8.83;;;3.00;99.90;;;;;;5026585;28;20471;-65
2022/12/06 02:49:58;;;;;;;13.73;10.27;;;3.00;99.90;;;;;;5031012;28;20932;-66
2022/12/06 02:52:26;;;;;;;16.90;10.87;;;3.00;99.90;;;;;;5032414;28;20410;-66
2022/12/06 02:54:55;;;;;;;14.37;10.17;;;3.00;99.90;;;;;;5031915;28;20948;-65
2022/12/06 02:57:34;;;;;;;18.37;11.10;;;3.00;99.90;;;;;;5032527;28;20964;-65
2022/12/06 03:00:00;;;;;;;18.70;11.57;;;3.00;99.90;;;;;;5031865;28;20428;-67
2022/12/06 03:02:25;;;;;;;19.03;10.90;;;2.90;99.90;;;;;;5031949;28;20433;-66
2022/12/06 03:05:19;;;;;;;19.33;11.17;;;2.90;99.90;;;;;;5031113;28;20426;-63
2022/12/06 03:07:46;;;;;;;21.50;12.40;;;2.90;99.90;;;;;;5028067;28;20182;-67
2022/12/06 03:10:20;;;;;;;21.90;12.53;;;2.90;99.90;;;;;;5031581;28;20461;-66
2022/12/06 03:13:00;;;;;;;17.93;11.90;;;2.90;99.90;;;;;;5027005;28;20409;-64
2022/12/06 03:15:43;;;;;;;20.20;12.47;;;2.90;99.90;;;;;;5060333;23;20469;-70
2022/12/06 03:18:24;;;;;;;13.57;9.23;;;2.90;99.90;;;;;;5050757;28;21017;-70
2022/12/06 03:20:57;;;;;;;17.37;11.80;;;2.80;99.90;;;;;;5051044;28;20456;-69
2022/12/06 03:23:28;;;;;;;20.03;11.33;;;2.80;99.90;;;;;;5048689;28;20394;-70
2022/12/06 03:25:58;;;;;;;21.67;13.97;;;2.80;99.90;;;;;;5051080;28;20513;-69
2022/12/06 03:28:24;;;;;;;16.67;11.10;;;2.90;99.90;;;;;;5051090;28;20410;-70
2022/12/06 03:30:53;;;;;;;17.13;11.63;;;2.90;99.90;;;;;;5051152;28;20416;-70
2022/12/06 03:33:22;;;;;;;20.63;12.20;;;2.90;99.90;;;;;;5050556;28;20445;-70
2022/12/06 03:35:51;;;;;;;16.80;10.83;;;2.80;99.90;;;;;;5050356;28;20440;-69
2022/12/06 03:38:23;;;;;;;15.50;9.23;;;2.80;99.90;;;;;;5050677;28;20406;-70
2022/12/06 03:40:52;;;;;;;21.70;10.70;;;2.80;99.90;;;;;;5050937;28;20405;-70
2022/12/06 03:43:18;;;;;;;15.80;9.43;;;2.80;99.90;;;;;;5049575;28;20934;-70
2022/12/06 03:46:03;;;;;;;13.80;8.77;;;2.80;99.90;;;;;;5046648;28;20548;-68
2022/12/06 03:48:33;;;;;;;19.57;9.67;;;2.80;99.90;;;;;;5044997;28;20453;-69
2022/12/06 03:51:04;;;;;;;11.77;8.60;;;2.90;99.90;;;;;;5050700;28;20402;-70
2022/12/06 03:53:30;;;;;;;10.47;6.93;;;2.80;99.90;;;;;;5049116;28;20442;-70
2022/12/06 03:55:55;;;;;;;9.60;7.80;;;2.90;99.90;;;;;;5050267;28;20480;-69
2022/12/06 03:58:21;;;;;;;10.87;6.90;;;2.90;99.90;;;;;;5050671;28;20456;-70
2022/12/06 04:00:46;;;;;;;10.53;7.10;;;2.80;99.90;;;;;;5050509;28;20175;-69
2022/12/06 04:03:12;;;;;;;11.70;7.50;;;2.90;99.90;;;;;;5050550;28;20202;-70
2022/12/06 04:05:38;;;;;;;7.30;6.27;;;2.90;99.90;;;;;;5050457;28;20742;-69
2022/12/06 04:08:04;;;;;;;7.53;6.27;;;2.90;99.90;;;;;;5050498;28;20174;-70
2022/12/06 04:10:29;;;;;;;7.90;6.03;;;2.90;99.90;;;;;;5048897;28;20171;-70
2022/12/06 04:13:01;;;;;;;9.97;7.30;;;2.90;99.90;;;;;;5050174;28;20409;-70
2022/12/06 04:15:32;;;;;;;10.50;8.20;;;2.80;99.90;;;;;;5050621;28;20305;-70
2022/12/06 04:18:13;;;;;;;11.07;7.20;;;2.70;99.90;;;;;;5050488;28;20401;-70
2022/12/06 04:23:42;;;;;;;11.77;7.70;;;2.70;99.90;;;;;;5032142;28;20485;-70
2022/12/06 04:26:12;;;;;;;10.60;8.17;;;2.70;99.90;;;;;;5049974;28;20831;-70
2022/12/06 04:39:35;;;;;;;15.77;9.40;;;2.70;99.90;;;;;;5050795;28;20914;-70
2022/12/06 04:44:45;;;;;;;10.70;7.97;;;2.70;99.90;;;;;;5050962;28;20298;-69
2022/12/06 04:47:11;;;;;;;11.67;7.70;;;2.80;99.90;;;;;;5048665;28;20844;-70
2022/12/06 04:49:37;;;;;;;8.97;6.93;;;2.80;99.90;;;;;;5036802;28;20425;-69
2022/12/06 04:52:04;;;;;;;11.80;7.87;;;2.90;99.90;;;;;;5055164;28;20259;-70
2022/12/06 04:54:30;;;;;;;9.77;6.53;;;2.80;99.90;;;;;;5053729;28;20457;-70
2022/12/06 04:56:56;;;;;;;9.80;7.73;;;2.70;99.90;;;;;;5054710;28;20411;-70
2022/12/06 04:59:23;;;;;;;6.57;5.83;;;2.70;99.90;;;;;;5054371;28;20507;-69
2022/12/06 05:01:48;;;;;;;12.20;7.30;;;2.70;99.90;;;;;;5052039;28;20899;-70
2022/12/06 05:04:14;;;;;;;9.57;8.30;;;2.70;99.90;;;;;;5054450;28;20424;-69
2022/12/06 05:06:40;;;;;;;10.70;7.37;;;2.70;99.90;;;;;;5054413;28;20198;-71
2022/12/06 05:09:05;;;;;;;9.67;5.90;;;2.70;99.90;;;;;;5052139;28;20180;-70
2022/12/06 05:11:31;;;;;;;9.80;6.30;;;2.70;99.90;;;;;;5050505;28;20258;-70
2022/12/06 05:13:58;;;;;;;7.33;6.27;;;2.70;99.90;;;;;;5054123;28;20199;-70
2022/12/06 05:16:23;;;;;;;8.00;6.93;;;2.60;99.90;;;;;;5048590;28;20548;-70
2022/12/06 05:18:49;;;;;;;9.70;7.83;;;2.60;99.90;;;;;;5046013;28;20452;-70
2022/12/06 05:21:18;;;;;;;10.27;7.20;;;2.50;99.90;;;;;;5051469;28;20569;-71
2022/12/06 05:23:43;;;;;;;7.30;5.80;;;2.50;99.90;;;;;;5054318;28;20275;-69
2022/12/06 05:26:15;;;;;;;8.17;6.40;;;2.50;99.90;;;;;;5054056;28;20998;-71
2022/12/06 05:28:42;;;;;;;9.30;7.43;;;2.50;99.90;;;;;;5053735;28;20170;-70
2022/12/06 05:31:08;;;;;;;11.63;7.77;;;2.50;99.90;;;;;;5054112;28;20435;-69
2022/12/06 05:33:34;;;;;;;9.03;5.80;;;2.40;99.90;;;;;;5049428;28;20481;-71
2022/12/06 05:36:04;;;;;;;7.87;6.00;;;2.50;99.90;;;;;;5054059;28;20513;-70
2022/12/06 05:38:31;;;;;;;8.43;6.43;;;2.50;99.90;;;;;;5053815;28;20414;-70
2022/12/06 05:40:57;;;;;;;8.47;6.10;;;2.50;99.90;;;;;;5047046;28;20419;-70
2022/12/06 05:43:23;;;;;;;8.97;5.17;;;2.50;99.90;;;;;;5053691;28;20500;-70
2022/12/06 05:45:52;;;;;;;8.40;6.47;;;2.50;99.90;;;;;;5053950;28;20194;-70
2022/12/06 05:48:17;;;;;;;9.20;6.17;;;2.60;99.90;;;;;;5054593;28;20171;-69
2022/12/06 05:50:45;;;;;;;5.57;4.53;;;2.60;99.90;;;;;;5050795;28;20528;-70
2022/12/06 05:53:11;;;;;;;10.10;6.30;;;2.50;99.90;;;;;;5030918;28;20175;-71
2022/12/06 05:55:36;;;;;;;8.10;6.33;;;2.60;99.90;;;;;;5050610;28;20444;-70
2022/12/06 05:58:03;;;;;;;8.93;6.63;;;2.60;99.90;;;;;;5047259;28;20270;-70
2022/12/06 06:00:29;;;;;;;10.10;6.10;;;2.60;99.90;;;;;;5033977;28;20208;-70
2022/12/06 06:02:54;;;;;;;11.70;7.07;;;2.60;99.90;;;;;;5046853;28;20499;-70
2022/12/06 06:05:20;;;;;;;13.40;6.90;;;2.50;99.90;;;;;;5053293;28;20252;-70
2022/12/06 06:07:45;;;;;;;10.60;6.70;;;2.60;99.90;;;;;;5049215;28;20285;-69
2022/12/06 06:10:11;;;;;;;12.90;7.07;;;2.60;99.90;;;;;;5050274;28;20529;-70
2022/12/06 06:12:37;;;;;;;9.20;6.00;;;2.60;99.90;;;;;;5053233;28;20262;-69
2022/12/06 06:15:05;;;;;;;11.40;8.47;;;2.60;99.90;;;;;;5050401;28;20206;-69
2022/12/06 06:17:32;;;;;;;7.83;6.20;;;2.60;99.90;;;;;;5052740;28;20171;-69
2022/12/06 06:19:57;;;;;;;9.07;6.20;;;2.60;99.90;;;;;;5049763;28;20414;-69
2022/12/06 06:22:23;;;;;;;13.17;7.17;;;2.60;99.90;;;;;;5052336;28;20408;-69
2022/12/06 06:24:50;;;;;;;7.43;6.33;;;2.70;99.90;;;;;;5051562;28;20287;-69
2022/12/06 06:27:16;;;;;;;10.63;7.50;;;2.70;99.90;;;;;;5038699;28;20220;-69
2022/12/06 06:29:42;;;;;;;8.93;7.10;;;2.60;99.90;;;;;;5039116;28;20445;-70
2022/12/06 06:32:07;;;;;;;9.53;6.77;;;2.50;99.90;;;;;;5045197;28;20806;-69
2022/12/06 06:34:33;;;;;;;9.73;6.10;;;2.60;99.90;;;;;;5033709;28;20207;-70
2022/12/06 06:36:58;;;;;;;10.03;7.33;;;2.60;99.90;;;;;;5046709;28;20642;-69
2022/12/06 06:39:24;;;;;;;8.47;7.17;;;2.50;99.90;;;;;;5051284;28;20171;-68
2022/12/06 06:41:49;;;;;;;8.70;6.17;;;2.50;99.90;;;;;;5046724;28;20176;-68
2022/12/06 06:44:15;;;;;;;9.20;6.17;;;2.50;99.90;;;;;;5042861;28;20258;-69
2022/12/06 06:46:41;;;;;;;8.03;5.77;;;2.50;99.90;;;;;;5052008;28;20213;-71
2022/12/06 06:49:06;;;;;;;8.37;5.53;;;2.50;99.90;;;;;;5047645;28;20413;-68
2022/12/06 06:51:33;;;;;;;10.17;6.20;;;2.50;99.90;;;;;;5050593;28;20183;-68
2022/12/06 06:53:59;;;;;;;11.47;7.63;;;2.60;99.90;;;;;;5052225;28;20688;-67
2022/12/06 06:56:25;;;;;;;8.83;7.80;;;2.70;99.90;;;;;;5052422;28;20426;-67
2022/12/06 06:58:50;;;;;;;10.83;7.20;;;2.70;99.90;;;;;;5052057;28;20511;-70
2022/12/06 07:01:22;;;;;;;7.90;5.63;;;2.70;99.90;;;;;;5052333;28;20934;-70
2022/12/06 07:03:50;;;;;;;9.97;6.77;;;2.70;99.90;;;;;;5052327;28;20678;-70
2022/12/06 07:06:16;;;;;;;8.90;7.00;;;2.60;99.90;;;;;;5052227;28;20425;-69
2022/12/06 07:08:42;;;;;;;6.97;5.90;;;2.60;99.90;;;;;;5052191;28;20424;-69
2022/12/06 07:11:09;;;;;;;8.67;7.07;;;2.60;99.90;;;;;;5051484;28;20812;-69
2022/12/06 07:13:37;;;;;;;7.77;6.77;;;2.60;99.90;;;;;;5051873;28;20567;-70
2022/12/06 07:16:04;;;;;;;10.87;7.30;;;2.60;99.90;;;;;;5051712;28;20948;-69
2022/12/06 07:18:30;;;;;;;7.80;5.97;;;2.60;99.90;;;;;;5046538;28;20775;-69
2022/12/06 07:21:02;;;;;;;11.63;8.17;;;2.70;99.90;;;;;;5049653;28;20406;-69
2022/12/06 07:23:29;;;;;;;11.60;8.30;;;2.70;99.90;;;;;;5051725;28;20182;-70
2022/12/06 07:26:09;;;;;;;9.13;7.67;;;2.70;99.90;;;;;;5051620;28;20429;-68
2022/12/06 07:28:36;;;;;;;9.20;7.87;;;2.70;99.90;;;;;;5051850;28;20409;-69
2022/12/06 07:31:16;;;;;;;9.03;6.57;;;2.80;99.90;;;;;;5051816;28;20417;-67
2022/12/06 07:33:43;;;;;;;7.50;6.60;;;2.70;99.90;;;;;;5045626;28;20473;-69
2022/12/06 07:36:10;;;;;;;9.60;6.90;;;2.70;99.90;;;;;;5043320;28;20812;-68
2022/12/06 07:38:36;;;;;;;9.37;7.57;;;2.80;99.90;;;;;;5051384;28;20413;-68
2022/12/06 07:44:59;;;;;;;7.60;6.80;;;2.70;99.90;;;;;;5051506;28;20420;-69
2022/12/06 07:46:34;;;;;;;13.27;7.87;;;2.70;99.90;;;;;;5046106;28;20481;-68
2022/12/06 07:48:59;;;;;;;12.43;8.80;;;2.80;99.90;;;;;;5044615;28;20453;-68
2022/12/06 07:51:25;;;;;;;12.43;7.47;;;2.80;99.90;;;;;;5047282;28;20179;-69
2022/12/06 07:53:51;;;;;;;7.83;6.53;;;2.80;99.90;;;;;;5051113;28;20285;-68
2022/12/06 07:56:16;;;;;;;9.20;7.17;;;2.90;99.90;;;;;;5051175;28;20280;-69
2022/12/06 07:58:42;;;;;;;14.27;7.23;;;2.90;99.90;;;;;;5024314;28;20546;-68
2022/12/06 08:01:07;;;;;;;7.63;5.60;;;2.80;99.90;;;;;;5053383;28;20179;-69
2022/12/06 08:03:33;;;;;;;8.67;6.10;;;2.90;99.90;;;;;;5052835;28;20186;-69
2022/12/06 08:05:58;;;;;;;16.63;8.50;;;3.20;99.90;;;;;;5055863;28;20249;-70
2022/12/06 08:08:24;;;;;;;11.60;7.20;;;3.00;99.90;;;;;;5058901;28;20186;-69
2022/12/06 08:10:50;;;;;;;7.83;5.43;;;3.00;99.90;;;;;;5058805;28;20194;-69
2022/12/06 08:13:16;;;;;;;9.63;6.23;;;2.90;99.90;;;;;;5050969;28;20542;-68
2022/12/06 08:15:41;;;;;;;6.97;5.80;;;2.80;99.90;;;;;;5055951;28;20260;-68
2022/12/06 08:18:07;;;;;;;11.13;6.83;;;2.90;99.90;;;;;;5060670;28;20259;-69
2022/12/06 08:20:32;;;;;;;11.47;7.30;;;2.90;99.90;;;;;;5056285;28;20171;-69
2022/12/06 08:22:58;;;;;;;9.70;6.10;;;3.00;99.90;;;;;;5038717;28;20175;-70
2022/12/06 08:25:23;;;;;;;8.40;6.77;;;3.00;99.90;;;;;;5052065;28;20569;-70
2022/12/06 08:27:49;;;;;;;6.70;6.07;;;3.00;99.90;;;;;;5057117;28;20435;-70
2022/12/06 08:30:15;;;;;;;9.60;6.37;;;3.00;99.90;;;;;;5055553;28;20182;-70
2022/12/06 08:32:40;;;;;;;11.93;7.23;;;3.00;99.90;;;;;;5053996;28;20211;-70
2022/12/06 08:35:06;;;;;;;5.87;5.20;;;3.00;99.90;;;;;;5056178;28;20214;-69
2022/12/06 08:37:33;;;;;;;6.83;5.43;;;3.10;99.90;;;;;;5056740;28;20171;-70
2022/12/06 08:39:58;;;;;;;9.60;4.90;;;3.10;99.90;;;;;;5050528;28;20834;-68
2022/12/06 08:42:24;;;;;;;8.23;5.70;;;3.00;99.90;;;;;;5050873;28;20405;-69
2022/12/06 08:44:53;;;;;;;7.60;5.70;;;3.10;99.90;;;;;;5032881;28;20201;-69
2022/12/06 08:47:21;;;;;;;5.97;5.43;;;3.10;99.90;;;;;;5050602;28;20205;-68
2022/12/06 08:49:48;;;;;;;8.50;5.03;;;3.10;99.90;;;;;;5050785;28;20421;-69
2022/12/06 08:52:14;;;;;;;5.53;4.13;;;3.00;99.90;;;;;;5047017;28;20445;-68
2022/12/06 08:54:40;;;;;;;6.70;4.70;;;3.10;99.90;;;;;;5046158;28;20513;-68
2022/12/06 08:57:05;;;;;;;6.70;5.00;;;3.20;99.90;;;;;;5050592;28;20243;-69
2022/12/06 08:59:31;;;;;;;5.93;5.40;;;3.20;99.90;;;;;;5049477;28;20534;-69
2022/12/06 09:01:57;;;;;;;4.77;3.87;;;3.20;99.90;;;;;;5050438;28;20185;-69
2022/12/06 09:04:22;;;;;;;6.20;5.20;;;3.00;99.90;;;;;;5050027;28;20186;-69
2022/12/06 09:06:48;;;;;;;8.67;4.70;;;3.10;99.90;;;;;;5050551;28;20187;-70
2022/12/06 09:09:16;;;;;;;6.43;5.03;;;3.30;99.90;;;;;;5048559;28;20539;-69
2022/12/06 09:11:43;;;;;;;6.20;5.27;;;3.40;99.90;;;;;;5050513;28;20181;-69
2022/12/06 09:14:12;;;;;;;5.33;4.83;;;3.20;99.90;;;;;;5047357;28;20461;-69
2022/12/06 09:16:41;;;;;;;6.47;4.50;;;3.20;99.90;;;;;;5049766;28;20464;-70
2022/12/06 09:19:06;;;;;;;7.60;4.23;;;3.30;99.90;;;;;;5052143;23;20490;-64
2022/12/06 09:21:33;;;;;;;4.37;3.97;;;3.30;99.90;;;;;;5026806;28;20438;-65
2022/12/06 09:23:59;;;;;;;4.33;3.90;;;3.20;99.90;;;;;;5032620;28;20247;-66
2022/12/06 09:26:25;;;;;;;8.07;4.30;;;3.10;99.90;;;;;;5030340;28;20398;-66
2022/12/06 09:28:53;;;;;;;5.40;4.83;;;3.20;99.90;;;;;;5030229;28;20882;-66
2022/12/06 09:31:19;;;;;;;6.97;5.03;;;3.10;99.90;;;;;;5013986;28;20431;-65
2022/12/06 09:33:45;;;;;;;5.37;4.50;;;3.20;99.90;;;;;;5006079;28;20502;-65
2022/12/06 09:36:27;;;;;;;6.33;4.30;;;3.30;99.90;;;;;;5015946;28;20552;-66
2022/12/06 09:39:09;;;;;;;5.73;5.20;;;3.20;99.90;;;;;;5016315;28;20805;-68
2022/12/06 09:42:05;;;;;;;9.23;4.60;;;3.20;99.90;;;;;;5014652;28;20477;-65
2022/12/06 09:44:54;;;;;;;5.37;3.90;;;3.10;99.90;;;;;;5016071;28;20419;-67
2022/12/06 09:47:56;;;;;;;6.27;4.77;;;3.20;99.90;;;;;;5020129;28;20873;-69
2022/12/06 09:50:42;;;;;;;5.50;4.50;;;3.10;99.90;;;;;;5002944;28;20434;-65
2022/12/06 09:53:33;;;;;;;7.70;4.60;;;3.10;99.90;;;;;;5011394;28;20417;-66
2022/12/06 09:56:10;;;;;;;5.37;3.80;;;3.20;99.90;;;;;;5023652;28;20766;-66
2022/12/06 09:58:38;;;;;;;5.73;3.87;;;3.30;99.90;;;;;;5022426;28;20892;-65
2022/12/06 10:01:29;;;;;;;6.10;4.87;;;3.40;99.90;;;;;;5020515;28;20404;-66
2022/12/06 10:04:12;;;;;;;4.83;4.33;;;3.40;99.90;;;;;;5026186;28;20449;-66
2022/12/06 10:06:49;;;;;;;6.57;4.57;;;3.50;99.90;;;;;;5025981;28;20471;-66
2022/12/06 10:09:15;;;;;;;7.13;4.20;;;3.40;99.90;;;;;;5012045;28;20427;-66
2022/12/06 10:12:01;;;;;;;6.27;4.37;;;3.20;99.90;;;;;;5001976;28;20444;-66
2022/12/06 10:15:01;;;;;;;4.90;4.30;;;3.10;99.90;;;;;;5021335;28;20651;-66
2022/12/06 10:17:54;;;;;;;7.27;5.50;;;3.10;99.90;;;;;;5018770;28;20859;-66
2022/12/06 10:20:33;;;;;;;5.50;4.90;;;3.10;99.90;;;;;;5011834;28;20910;-66
2022/12/06 10:23:32;;;;;;;5.20;3.70;;;3.20;99.90;;;;;;5019547;28;20403;-66
2022/12/06 10:26:25;;;;;;;5.77;4.23;;;3.00;99.90;;;;;;5015038;28;20466;-67
2022/12/06 10:29:15;;;;;;;4.77;4.33;;;3.10;99.90;;;;;;5019731;28;20445;-64
2022/12/06 10:32:30;;;;;;;7.07;5.00;;;3.20;99.90;;;;;;5028033;28;20947;-65
2022/12/06 10:35:17;;;;;;;6.20;5.63;;;3.20;99.90;;;;;;5002081;28;20956;-65
2022/12/06 10:38:06;;;;;;;5.73;5.13;;;3.20;99.90;;;;;;5020920;28;20497;-66
2022/12/06 10:40:45;;;;;;;6.63;3.87;;;3.20;99.90;;;;;;5016782;28;20413;-66
2022/12/06 10:43:14;;;;;;;8.30;5.07;;;3.30;99.90;;;;;;5022543;28;20464;-66
2022/12/06 10:49:08;;;;;;;8.17;5.73;;;3.30;99.90;;;;;;5017462;28;20552;-66
2022/12/06 10:51:47;;;;;;;5.87;4.73;;;3.30;99.90;;;;;;5018491;28;20407;-66
2022/12/06 10:54:22;;;;;;;8.23;5.53;;;3.30;99.90;;;;;;5013726;28;20453;-66
2022/12/06 10:56:50;;;;;;;5.90;4.17;;;3.30;99.90;;;;;;5018613;28;20471;-65
2022/12/06 10:59:35;;;;;;;8.07;5.40;;;3.20;99.90;;;;;;5028475;28;20427;-66
2022/12/06 11:02:33;;;;;;;6.43;5.60;;;3.10;99.90;;;;;;5021293;28;20461;-66
2022/12/06 11:05:03;;;;;;;6.70;5.17;;;3.20;99.90;;;;;;5013888;28;21036;-66
2022/12/06 11:07:36;;;;;;;8.20;5.97;;;3.10;99.90;;;;;;5020614;28;20437;-66
2022/12/06 11:10:13;;;;;;;9.73;5.70;;;3.20;99.90;;;;;;5016113;28;20408;-66
2022/12/06 11:12:39;;;;;;;9.47;5.93;;;3.20;99.90;;;;;;5021438;28;20761;-67
2022/12/06 11:15:25;;;;;;;10.60;7.20;;;3.30;99.90;;;;;;5013746;28;20454;-64
2022/12/06 11:18:14;;;;;;;10.60;7.40;;;3.20;99.90;;;;;;5018745;28;20442;-65
2022/12/06 11:20:58;;;;;;;6.40;5.43;;;3.20;99.90;;;;;;5018129;28;20498;-65
2022/12/06 11:23:44;;;;;;;8.13;6.17;;;3.10;99.90;;;;;;5011413;28;20402;-64
2022/12/06 11:26:21;;;;;;;13.70;8.47;;;3.30;99.90;;;;;;5024749;28;20892;-65
2022/12/06 11:29:05;;;;;;;10.93;6.70;;;3.40;99.90;;;;;;5016657;28;20426;-65
2022/12/06 11:31:39;;;;;;;9.00;6.20;;;3.40;99.90;;;;;;5019452;28;20403;-65
2022/12/06 11:34:30;;;;;;;9.77;6.87;;;3.40;99.90;;;;;;5022743;28;20457;-64
2022/12/06 11:36:57;;;;;;;9.67;6.07;;;3.50;99.90;;;;;;5020857;28;20413;-65
2022/12/06 11:39:23;;;;;;;8.37;5.60;;;3.40;99.90;;;;;;5015148;28;20438;-65
2022/12/06 11:41:53;;;;;;;11.27;6.80;;;3.60;99.90;;;;;;5012949;28;20445;-65
2022/12/06 11:44:24;;;;;;;8.20;5.70;;;3.80;99.90;;;;;;5015848;28;20469;-65
2022/12/06 11:46:59;;;;;;;10.43;5.70;;;3.90;99.90;;;;;;5018642;28;20414;-64
2022/12/06 11:49:34;;;;;;;9.40;6.87;;;3.80;99.90;;;;;;5027776;28;20841;-66
2022/12/06 11:52:11;;;;;;;10.13;6.43;;;3.70;99.90;;;;;;5016091;28;20418;-67
2022/12/06 11:54:45;;;;;;;8.37;5.40;;;3.80;99.90;;;;;;5024101;28;20482;-65
2022/12/06 11:57:21;;;;;;;6.53;4.93;;;3.80;99.90;;;;;;5017868;28;20412;-65
2022/12/06 12:00:07;;;;;;;4.53;4.13;;;3.70;99.90;;;;;;5015392;28;20480;-65
2022/12/06 12:02:33;;;;;;;6.13;4.43;;;3.50;99.90;;;;;;5024459;28;20506;-66
2022/12/06 12:05:29;;;;;;;10.30;4.90;;;3.60;99.90;;;;;;5012941;28;20509;-65
2022/12/06 12:07:57;;;;;;;5.40;4.20;;;3.70;99.90;;;;;;5002181;28;20574;-65
2022/12/06 12:10:33;;;;;;;5.23;4.70;;;3.80;99.90;;;;;;5020389;28;20533;-66
2022/12/06 12:16:10;;;;;;;7.40;5.03;;;3.70;99.90;;;;;;5017450;28;20457;-65
2022/12/06 12:18:38;;;;;;;5.77;5.27;;;3.70;99.90;;;;;;5015259;28;20457;-66
2022/12/06 12:21:05;;;;;;;5.10;4.60;;;3.60;99.90;;;;;;5014975;28;20893;-66
2022/12/06 12:23:46;;;;;;;7.63;4.53;;;3.40;99.90;;;;;;5019735;28;20419;-66
2022/12/06 12:26:17;;;;;;;6.57;4.73;;;3.50;99.90;;;;;;5003325;28;20442;-66
2022/12/06 12:28:46;;;;;;;4.47;4.07;;;3.50;99.90;;;;;;5014680;28;20438;-66
2022/12/06 12:31:20;;;;;;;4.30;3.93;;;3.50;99.90;;;;;;5020905;28;20406;-66
2022/12/06 12:33:47;;;;;;;5.13;4.27;;;3.50;99.90;;;;;;5012855;28;20457;-66
2022/12/06 12:36:25;;;;;;;4.30;3.70;;;3.50;99.90;;;;;;5020881;28;20438;-65
2022/12/06 12:38:57;;;;;;;4.33;3.33;;;3.40;99.90;;;;;;5021740;28;21051;-65
2022/12/06 12:41:42;;;;;;;3.73;3.43;;;3.40;99.90;;;;;;5019388;28;20472;-65
2022/12/06 12:44:14;;;;;;;3.70;3.40;;;3.20;99.90;;;;;;5020857;28;20506;-66
2022/12/06 12:46:43;;;;;;;4.23;3.43;;;3.10;99.90;;;;;;5016672;28;20429;-66
2022/12/06 12:49:24;;;;;;;4.30;3.10;;;3.20;99.90;;;;;;5021353;28;21051;-65
2022/12/06 12:51:50;;;;;;;5.50;3.50;;;3.20;99.90;;;;;;5014537;28;20457;-65
2022/12/06 12:54:35;;;;;;;3.30;3.00;;;3.20;99.90;;;;;;5021215;28;20450;-65
2022/12/06 12:57:05;;;;;;;19.00;9.23;;;3.20;99.90;;;;;;5021121;28;20465;-64
2022/12/06 12:59:39;;;;;;;4.53;4.00;;;3.30;99.90;;;;;;5022689;28;20445;-65
2022/12/06 13:02:21;;;;;;;3.30;3.10;;;3.30;99.90;;;;;;5017755;28;20462;-67
2022/12/06 13:05:00;;;;;;;4.40;3.83;;;3.40;99.90;;;;;;5013471;28;20413;-67
2022/12/06 13:07:32;;;;;;;4.30;3.57;;;3.20;99.90;;;;;;5020844;28;20499;-67
2022/12/06 13:09:58;;;;;;;4.03;3.70;;;3.10;99.90;;;;;;5023354;28;20460;-66
2022/12/06 13:12:44;;;;;;;4.43;4.03;;;3.20;99.90;;;;;;5015636;28;20921;-66
2022/12/06 13:15:22;;;;;;;4.50;4.10;;;3.20;99.90;;;;;;5020607;28;20199;-65
2022/12/06 13:18:00;;;;;;;4.30;3.97;;;3.20;99.90;;;;;;5026434;28;20449;-65
2022/12/06 13:20:32;;;;;;;4.57;4.03;;;3.30;99.90;;;;;;5018450;28;20411;-65
2022/12/06 13:23:11;;;;;;;4.03;3.73;;;3.40;99.90;;;;;;5026543;28;20912;-66
2022/12/06 13:25:37;;;;;;;3.90;3.40;;;3.30;99.90;;;;;;5020148;28;20850;-65
2022/12/06 13:28:05;;;;;;;4.60;4.20;;;3.20;99.90;;;;;;5025490;28;20504;-65
2022/12/06 13:30:34;;;;;;;4.37;3.83;;;3.20;99.90;;;;;;5026292;28;20171;-66
2022/12/06 13:33:28;;;;;;;3.53;3.23;;;3.10;99.90;;;;;;5000912;28;20505;-66
2022/12/06 13:36:05;;;;;;;6.00;4.27;;;3.20;99.90;;;;;;5014025;28;20438;-66
2022/12/06 13:38:36;;;;;;;3.80;3.50;;;3.10;99.90;;;;;;5022838;28;20794;-65